Time;durP1;ratioP1;P1;durP2;ratioP2;P2;SDS_P1;SDS_P2;PMS_P1;PMS_P2;Temp;Humidity;BMP_temperature;BMP_pressure;BME280_temperature;BME280_humidity;BME280_pressure;Samples;Min_cycle;Max_cycle;Signal;HPM_P1;HPM_P2
2021/01/02 00:02:37;;;;;;;2.63;0.90;;;21.40;79.90;;;;;;5070425;28;20025;-61
2021/01/02 00:05:07;;;;;;;1.67;0.63;;;21.40;79.90;;;;;;5071747;28;20028;-58
2021/01/02 00:07:56;;;;;;;1.48;0.90;;;21.40;80.00;;;;;;5071592;28;20012;-57
2021/01/02 00:10:28;;;;;;;2.28;1.20;;;21.40;79.90;;;;;;5071579;28;20028;-61
2021/01/02 00:13:26;;;;;;;2.08;1.00;;;21.50;79.80;;;;;;5071721;28;20017;-57
2021/01/02 00:16:11;;;;;;;2.35;0.70;;;21.50;79.80;;;;;;5071794;28;20106;-54
2021/01/02 00:18:51;;;;;;;2.50;1.13;;;21.50;79.80;;;;;;5070033;28;20036;-55
2021/01/02 00:21:28;;;;;;;1.70;0.88;;;21.50;79.70;;;;;;5075594;28;20143;-60
2021/01/02 00:24:23;;;;;;;2.33;0.98;;;21.50;79.80;;;;;;5075650;28;20394;-60
2021/01/02 00:27:10;;;;;;;1.75;0.80;;;21.60;79.80;;;;;;5075709;28;20475;-50
2021/01/02 00:30:02;;;;;;;1.08;0.73;;;21.60;79.70;;;;;;5075016;28;20047;-59
2021/01/02 00:33:07;;;;;;;;;;;21.60;79.70;;;;;;5075704;28;20020;-54
2021/01/02 00:35:36;;;;;;;1.80;0.80;;;21.60;79.60;;;;;;5032911;28;20023;-60
2021/01/02 00:38:06;;;;;;;1.35;0.60;;;21.60;79.60;;;;;;5033119;28;20025;-57
2021/01/02 00:40:36;;;;;;;2.70;0.95;;;21.60;79.80;;;;;;5044156;28;20509;-59
2021/01/02 00:43:07;;;;;;;1.20;0.80;;;21.70;80.50;;;;;;5065924;28;20425;-58
2021/01/02 00:45:36;;;;;;;2.37;0.80;;;21.70;79.80;;;;;;5075530;28;20067;-59
2021/01/02 00:48:05;;;;;;;1.40;0.65;;;21.70;79.70;;;;;;5075425;28;20028;-59
2021/01/02 00:50:33;;;;;;;2.22;0.82;;;21.80;79.80;;;;;;5065890;28;20364;-55
2021/01/02 00:53:20;;;;;;;1.45;0.60;;;21.80;79.60;;;;;;5074526;28;20147;-53
2021/01/02 00:56:07;;;;;;;1.92;0.90;;;21.90;79.20;;;;;;5074704;28;20032;-58
2021/01/02 00:59:02;;;;;;;1.38;0.95;;;21.90;79.00;;;;;;5069339;28;20021;-57
2021/01/02 01:01:46;;;;;;;2.97;0.77;;;22.00;79.00;;;;;;5073842;28;20503;-55
2021/01/02 01:05:00;;;;;;;2.08;1.00;;;22.10;79.00;;;;;;5072502;28;20044;-48
2021/01/02 01:07:29;;;;;;;3.03;0.90;;;22.10;78.80;;;;;;5066112;28;20051;-62
2021/01/02 01:10:00;;;;;;;1.58;0.65;;;22.10;78.60;;;;;;5073151;28;20020;-58
2021/01/02 01:12:29;;;;;;;1.15;0.77;;;22.20;78.60;;;;;;5074246;28;20032;-60
2021/01/02 01:14:57;;;;;;;1.92;1.00;;;22.20;78.70;;;;;;5073814;28;20036;-53
2021/01/02 01:17:29;;;;;;;1.45;0.95;;;22.30;78.30;;;;;;5069235;28;20056;-63
2021/01/02 01:19:58;;;;;;;;;;;22.30;78.30;;;;;;5072097;28;20094;-59
2021/01/02 01:22:26;;;;;;;2.72;1.02;;;22.40;78.00;;;;;;5073421;28;20362;-56
2021/01/02 01:25:07;;;;;;;1.85;0.73;;;22.40;77.90;;;;;;5073076;28;20494;-54
2021/01/02 01:28:04;;;;;;;1.48;0.70;;;22.50;78.00;;;;;;5069045;28;20041;-56
2021/01/02 01:30:39;;;;;;;2.10;0.63;;;22.60;78.20;;;;;;5071767;28;20037;-54
2021/01/02 01:33:08;;;;;;;1.50;0.80;;;22.70;77.40;;;;;;5073202;28;20058;-55
2021/01/02 01:35:43;;;;;;;1.70;0.65;;;22.70;77.20;;;;;;5072687;28;20104;-56
2021/01/02 01:38:15;;;;;;;1.77;0.70;;;22.80;77.00;;;;;;5067517;28;20029;-58
2021/01/02 01:40:45;;;;;;;3.65;0.90;;;22.80;76.90;;;;;;5066164;28;20111;-57
2021/01/02 01:43:46;;;;;;;5.25;1.13;;;22.90;76.80;;;;;;5070273;28;20028;-53
2021/01/02 01:46:16;;;;;;;1.13;0.47;;;23.00;76.60;;;;;;5067974;28;20027;-59
2021/01/02 01:49:05;;;;;;;2.28;0.70;;;23.00;76.70;;;;;;5067302;28;20028;-54
2021/01/02 01:52:13;;;;;;;2.65;0.70;;;23.10;75.60;;;;;;5070913;28;20036;-53
2021/01/02 01:54:53;;;;;;;1.45;0.93;;;23.20;76.20;;;;;;5065003;28;20127;-55
2021/01/02 01:57:28;;;;;;;3.30;1.00;;;23.30;75.60;;;;;;5068245;28;20128;-52
2021/01/02 01:59:58;;;;;;;2.10;0.70;;;23.30;75.00;;;;;;5071525;28;20050;-51
2021/01/02 02:02:40;;;;;;;1.52;0.88;;;23.40;74.60;;;;;;5072666;28;20339;-53
2021/01/02 02:05:10;;;;;;;2.47;1.00;;;23.40;74.80;;;;;;5072364;28;20039;-55
2021/01/02 02:08:00;;;;;;;1.65;0.93;;;23.50;74.30;;;;;;5067778;28;20021;-56
2021/01/02 02:10:31;;;;;;;2.15;0.77;;;23.50;74.10;;;;;;5069186;28;20029;-58
2021/01/02 02:13:28;;;;;;;2.77;1.03;;;23.50;74.50;;;;;;5072303;28;20527;-55
2021/01/02 02:15:58;;;;;;;6.35;1.17;;;23.60;74.10;;;;;;5069886;28;20016;-54
2021/01/02 02:18:27;;;;;;;5.90;2.00;;;23.60;74.70;;;;;;5067506;28;20027;-57
2021/01/02 02:20:57;;;;;;;7.78;1.95;;;23.70;73.80;;;;;;5071508;28;20093;-59
2021/01/02 02:23:28;;;;;;;8.75;2.78;;;23.70;74.20;;;;;;5070370;28;20039;-57
2021/01/02 02:26:21;;;;;;;6.00;2.13;;;23.70;74.20;;;;;;5072089;28;20029;-52
2021/01/02 02:28:51;;;;;;;9.20;2.58;;;23.80;74.20;;;;;;5062400;28;20036;-50
2021/01/02 02:31:20;;;;;;;9.68;3.40;;;23.80;74.10;;;;;;5071631;28;20040;-53
2021/01/02 02:33:59;;;;;;;9.05;3.10;;;23.80;74.00;;;;;;5071951;28;20028;-56
2021/01/02 02:36:29;;;;;;;10.95;3.17;;;23.90;73.80;;;;;;5068785;28;20016;-54
2021/01/02 02:39:01;;;;;;;10.90;2.95;;;23.90;73.70;;;;;;5066288;28;20020;-63
2021/01/02 02:41:40;;;;;;;12.23;4.05;;;24.00;73.80;;;;;;5070753;28;20132;-56
2021/01/02 02:44:10;;;;;;;13.18;4.32;;;24.00;73.60;;;;;;5071879;28;20028;-55
2021/01/02 02:46:47;;;;;;;18.15;4.35;;;24.00;73.50;;;;;;5071636;28;20483;-56
2021/01/02 02:49:25;;;;;;;14.68;5.15;;;23.90;73.60;;;;;;5068070;28;20071;-55
2021/01/02 02:52:20;;;;;;;12.93;4.40;;;23.90;73.60;;;;;;5068019;28;20020;-54
2021/01/02 02:54:47;;;;;;;13.95;5.13;;;23.90;73.60;;;;;;5069956;28;20028;-52
2021/01/02 02:57:17;;;;;;;13.45;4.82;;;23.90;74.00;;;;;;5066219;28;20035;-52
2021/01/02 02:59:45;;;;;;;13.20;4.25;;;23.90;74.10;;;;;;5071169;28;20063;-51
2021/01/02 03:02:14;;;;;;;12.60;5.03;;;23.80;74.20;;;;;;5069915;28;20029;-58
2021/01/02 03:04:42;;;;;;;18.30;5.90;;;23.80;74.40;;;;;;5070814;28;20084;-54
2021/01/02 03:07:10;;;;;;;14.75;4.28;;;23.70;74.60;;;;;;5066042;28;20024;-52
2021/01/02 03:09:38;;;;;;;13.85;4.78;;;23.70;74.90;;;;;;5070630;28;20029;-55
2021/01/02 03:12:05;;;;;;;15.70;5.68;;;23.60;74.90;;;;;;5071112;28;20028;-55
2021/01/02 03:14:33;;;;;;;11.60;4.60;;;23.60;75.10;;;;;;5071376;28;20479;-55
2021/01/02 03:17:01;;;;;;;17.73;5.93;;;23.60;75.30;;;;;;5067609;28;20024;-50
2021/01/02 03:19:32;;;;;;;11.82;4.35;;;23.50;75.40;;;;;;5069379;28;20058;-53
2021/01/02 03:22:00;;;;;;;14.48;5.20;;;23.50;75.90;;;;;;5070977;28;20021;-52
2021/01/02 03:24:27;;;;;;;13.55;4.63;;;23.50;76.10;;;;;;5070773;28;20475;-57
2021/01/02 03:26:55;;;;;;;12.50;4.78;;;23.50;76.20;;;;;;5066947;28;20025;-53
2021/01/02 03:29:22;;;;;;;13.55;5.30;;;23.40;76.30;;;;;;5069341;28;20107;-52
2021/01/02 03:31:49;;;;;;;16.42;6.10;;;23.40;76.50;;;;;;5067037;28;20024;-59
2021/01/02 03:34:17;;;;;;;13.65;5.63;;;23.40;76.60;;;;;;5069158;28;20043;-56
2021/01/02 03:36:44;;;;;;;17.60;9.15;;;23.40;76.70;;;;;;5069913;28;20025;-57
2021/01/02 03:39:11;;;;;;;25.23;10.60;;;23.40;77.30;;;;;;5065750;28;20048;-54
2021/01/02 03:41:39;;;;;;;13.82;8.27;;;23.40;80.10;;;;;;5070289;28;20483;-52
2021/01/02 03:44:06;;;;;;;11.90;5.80;;;22.90;82.90;;;;;;5070960;28;20032;-52
2021/01/02 03:46:33;;;;;;;8.68;3.53;;;22.80;85.40;;;;;;5070241;28;20029;-57
2021/01/02 03:49:01;;;;;;;14.82;7.85;;;22.50;84.50;;;;;;5066018;28;20032;-56
2021/01/02 03:51:28;;;;;;;24.73;15.75;;;22.40;88.20;;;;;;5062552;28;20912;-60
2021/01/02 03:53:55;;;;;;;23.05;16.40;;;22.60;84.00;;;;;;5068717;28;20032;-57
2021/01/02 03:56:23;;;;;;;22.98;17.15;;;22.80;83.30;;;;;;5070314;28;20024;-62
2021/01/02 03:58:51;;;;;;;29.50;17.60;;;22.90;82.20;;;;;;5065827;28;20032;-58
2021/01/02 04:01:18;;;;;;;29.75;18.60;;;23.00;81.70;;;;;;5069573;28;20028;-59
2021/01/02 04:03:46;;;;;;;25.90;16.55;;;23.10;81.70;;;;;;5068708;28;20025;-56
2021/01/02 04:06:13;;;;;;;22.63;14.63;;;23.20;81.50;;;;;;5070097;28;20121;-57
2021/01/02 04:08:41;;;;;;;16.38;11.50;;;23.10;82.10;;;;;;5065709;28;20021;-53
2021/01/02 04:11:08;;;;;;;23.40;13.45;;;23.20;82.50;;;;;;5068524;28;20044;-53
2021/01/02 04:13:35;;;;;;;24.33;14.98;;;23.20;83.00;;;;;;5070348;28;20111;-61
2021/01/02 04:16:03;;;;;;;20.90;12.15;;;23.20;83.30;;;;;;5070528;28;20025;-58
2021/01/02 04:18:30;;;;;;;13.65;9.65;;;23.30;84.00;;;;;;5067302;28;20039;-57
2021/01/02 04:20:57;;;;;;;15.98;10.02;;;23.20;84.30;;;;;;5068184;28;20051;-61
2021/01/02 04:23:25;;;;;;;11.77;7.82;;;23.20;84.70;;;;;;5067526;28;20029;-58
2021/01/02 04:25:54;;;;;;;17.25;7.93;;;23.20;85.40;;;;;;5070422;28;20033;-60
2021/01/02 04:28:21;;;;;;;14.00;7.70;;;23.20;86.40;;;;;;5069997;28;20476;-59
2021/01/02 04:30:49;;;;;;;12.45;6.93;;;23.20;87.20;;;;;;5065572;28;20607;-56
2021/01/02 04:33:16;;;;;;;12.73;5.00;;;23.20;87.50;;;;;;5068972;28;20108;-56
2021/01/02 04:35:44;;;;;;;8.82;4.97;;;23.20;86.80;;;;;;5068593;28;20040;-55
2021/01/02 04:38:11;;;;;;;7.72;4.03;;;23.30;87.10;;;;;;5069956;28;20043;-59
2021/01/02 04:40:39;;;;;;;11.80;4.15;;;23.30;87.50;;;;;;5066099;28;20036;-55
2021/01/02 04:43:09;;;;;;;8.48;3.58;;;23.30;87.80;;;;;;5069217;28;20028;-56
2021/01/02 04:45:37;;;;;;;8.10;3.92;;;23.30;87.80;;;;;;5069843;28;20040;-60
2021/01/02 04:48:07;;;;;;;10.88;3.83;;;23.30;88.20;;;;;;5069419;28;20113;-57
2021/01/02 04:50:35;;;;;;;7.65;3.35;;;23.30;88.30;;;;;;5067480;28;20083;-61
2021/01/02 04:53:05;;;;;;;11.30;2.60;;;23.40;88.40;;;;;;5069143;28;20111;-59
2021/01/02 04:55:33;;;;;;;6.00;2.22;;;23.30;88.00;;;;;;5070028;28;20036;-59
2021/01/02 04:58:07;;;;;;;6.15;2.90;;;23.40;88.30;;;;;;5070014;28;20429;-55
2021/01/02 05:00:38;;;;;;;4.47;2.60;;;23.30;88.10;;;;;;5065822;28;20025;-60
2021/01/02 05:03:07;;;;;;;5.47;2.45;;;23.40;88.50;;;;;;5068841;28;20028;-58
2021/01/02 05:05:35;;;;;;;4.95;1.92;;;23.30;88.10;;;;;;5071691;28;20098;-53
2021/01/02 05:08:04;;;;;;;11.18;2.35;;;23.40;88.20;;;;;;5073941;28;20027;-57
2021/01/02 05:10:32;;;;;;;7.13;2.13;;;23.40;88.60;;;;;;5074339;28;20060;-54
2021/01/02 05:13:12;;;;;;;9.98;2.33;;;23.40;88.20;;;;;;5074902;28;20383;-59
2021/01/02 05:15:40;;;;;;;10.30;2.83;;;23.40;87.80;;;;;;5074524;28;20024;-56
2021/01/02 05:18:08;;;;;;;6.68;2.40;;;23.40;87.50;;;;;;5074606;28;20032;-55
2021/01/02 05:20:35;;;;;;;9.25;2.88;;;23.30;87.40;;;;;;5073861;28;20044;-61
2021/01/02 05:23:10;;;;;;;8.13;2.70;;;23.30;87.50;;;;;;5067101;28;20471;-59
2021/01/02 05:25:38;;;;;;;6.45;2.72;;;23.30;86.80;;;;;;5069906;28;20029;-57
2021/01/02 05:28:15;;;;;;;8.63;2.90;;;23.30;86.60;;;;;;5070586;28;20108;-58
2021/01/02 05:30:43;;;;;;;4.35;2.60;;;23.30;86.70;;;;;;5073194;28;20089;-55
2021/01/02 05:33:13;;;;;;;5.45;2.40;;;23.30;86.30;;;;;;5073192;28;20112;-63
2021/01/02 05:35:46;;;;;;;5.20;2.42;;;23.30;86.20;;;;;;5071182;28;20044;-61
2021/01/02 05:38:17;;;;;;;7.70;2.92;;;23.30;86.10;;;;;;5068111;28;20100;-61
2021/01/02 05:40:52;;;;;;;4.38;2.42;;;23.30;85.90;;;;;;5072573;28;20103;-53
2021/01/02 05:43:22;;;;;;;5.38;3.00;;;23.30;85.90;;;;;;5073069;28;20064;-55
2021/01/02 05:45:50;;;;;;;6.22;2.72;;;23.30;85.80;;;;;;5070852;28;20343;-55
2021/01/02 05:48:19;;;;;;;4.38;2.20;;;23.30;85.90;;;;;;5067857;28;20677;-55
2021/01/02 05:50:51;;;;;;;7.53;2.47;;;23.30;85.80;;;;;;5072546;28;20084;-50
2021/01/02 05:53:23;;;;;;;6.72;2.88;;;23.30;85.50;;;;;;5072515;28;20021;-54
2021/01/02 05:56:00;;;;;;;11.10;2.40;;;23.30;85.60;;;;;;5072347;28;20108;-61
2021/01/02 05:58:28;;;;;;;11.70;3.30;;;23.30;85.70;;;;;;5068232;28;20040;-50
2021/01/02 06:01:06;;;;;;;6.20;2.70;;;23.30;85.60;;;;;;5071750;28;20111;-58
2021/01/02 06:03:36;;;;;;;5.50;2.55;;;23.30;85.60;;;;;;5068748;28;20025;-50
2021/01/02 06:06:06;;;;;;;5.38;2.88;;;23.30;86.10;;;;;;5072111;28;20024;-55
2021/01/02 06:08:49;;;;;;;8.15;2.58;;;23.30;85.50;;;;;;5064093;28;20021;-54
2021/01/02 06:11:18;;;;;;;4.97;2.17;;;23.30;85.40;;;;;;5069674;28;20054;-53
2021/01/02 06:13:48;;;;;;;5.43;2.53;;;23.30;85.30;;;;;;5072376;28;20039;-57
2021/01/02 06:16:16;;;;;;;8.07;2.97;;;23.30;85.20;;;;;;5071450;28;20027;-52
2021/01/02 06:18:46;;;;;;;3.35;2.28;;;23.30;85.20;;;;;;5067415;28;20083;-54
2021/01/02 06:21:16;;;;;;;3.63;2.13;;;23.30;85.20;;;;;;5071620;28;20044;-57
2021/01/02 06:23:45;;;;;;;4.78;2.38;;;23.30;85.20;;;;;;5071500;28;20056;-55
2021/01/02 06:26:14;;;;;;;7.15;2.40;;;23.30;85.10;;;;;;5070788;28;20031;-58
2021/01/02 06:28:45;;;;;;;3.90;1.88;;;23.30;85.10;;;;;;5064186;28;20021;-62
2021/01/02 06:31:14;;;;;;;4.30;2.20;;;23.30;85.00;;;;;;5071043;28;20406;-57
2021/01/02 06:33:49;;;;;;;6.63;2.00;;;23.30;84.60;;;;;;5071676;28;20063;-62
2021/01/02 06:36:36;;;;;;;4.70;2.00;;;23.30;85.30;;;;;;5071021;28;20574;-60
2021/01/02 06:39:23;;;;;;;9.38;2.38;;;22.90;88.40;;;;;;5066944;28;20040;-61
2021/01/02 06:41:56;;;;;;;7.95;2.28;;;22.40;90.10;;;;;;5069578;28;20566;-62
2021/01/02 06:44:42;;;;;;;6.18;1.75;;;22.40;90.20;;;;;;5070911;28;20114;-62
2021/01/02 06:47:33;;;;;;;8.80;2.72;;;22.50;89.50;;;;;;5068980;28;20455;-62
2021/01/02 06:50:20;;;;;;;9.38;2.35;;;22.40;90.40;;;;;;5066024;28;20040;-64
2021/01/02 06:52:47;;;;;;;6.47;1.70;;;22.40;91.30;;;;;;5069667;28;20439;-61
2021/01/02 06:55:26;;;;;;;9.57;2.03;;;22.00;91.90;;;;;;5071451;28;20470;-65
2021/01/02 06:58:17;;;;;;;5.30;2.05;;;21.60;93.00;;;;;;5069142;28;20024;-54
2021/01/02 07:00:44;;;;;;;4.70;1.75;;;21.70;92.60;;;;;;5067777;28;20021;-59
2021/01/02 07:03:56;;;;;;;4.82;2.03;;;22.00;91.60;;;;;;5071519;28;20516;-54
2021/01/02 07:06:30;;;;;;;8.07;1.75;;;22.30;91.10;;;;;;5069026;28;20040;-56
2021/01/02 07:09:14;;;;;;;4.57;1.80;;;22.40;90.80;;;;;;5066645;28;20025;-56
2021/01/02 07:11:43;;;;;;;7.50;1.80;;;22.50;90.40;;;;;;5067003;28;20035;-54
2021/01/02 07:16:50;;;;;;;4.72;1.58;;;22.50;90.60;;;;;;5067294;28;20040;-56
2021/01/02 07:19:29;;;;;;;5.25;1.30;;;22.40;90.60;;;;;;5062061;28;20032;-54
2021/01/02 07:21:58;;;;;;;4.47;1.23;;;22.40;90.70;;;;;;5070873;28;20418;-54
2021/01/02 07:24:29;;;;;;;2.72;1.00;;;22.40;90.70;;;;;;5070574;28;20042;-53
2021/01/02 07:27:05;;;;;;;9.40;1.67;;;22.40;90.70;;;;;;5071013;28;20024;-54
2021/01/02 07:29:46;;;;;;;3.67;1.33;;;22.50;90.70;;;;;;5065675;28;20447;-57
2021/01/02 07:32:17;;;;;;;4.18;1.60;;;22.50;90.80;;;;;;5070812;28;20031;-54
2021/01/02 07:34:56;;;;;;;4.20;1.35;;;22.50;91.00;;;;;;5072707;28;20032;-55
2021/01/02 07:37:28;;;;;;;4.38;1.60;;;22.50;90.80;;;;;;5072565;28;20031;-58
2021/01/02 07:40:10;;;;;;;3.40;1.55;;;22.50;90.90;;;;;;5072096;28;20470;-59
2021/01/02 07:42:41;;;;;;;4.00;1.55;;;22.50;90.80;;;;;;5071596;28;20025;-64
2021/01/02 07:45:13;;;;;;;3.08;1.17;;;22.50;91.30;;;;;;5067392;28;20395;-65
2021/01/02 07:47:51;;;;;;;6.47;1.35;;;22.50;90.80;;;;;;5070864;28;20027;-63
2021/01/02 07:50:21;;;;;;;1.55;0.70;;;22.60;90.70;;;;;;5070857;28;20033;-62
2021/01/02 07:52:53;;;;;;;2.63;1.00;;;22.60;90.50;;;;;;5072158;28;20028;-62
2021/01/02 07:55:26;;;;;;;3.42;1.25;;;22.50;90.40;;;;;;5072187;28;20414;-65
2021/01/02 07:57:54;;;;;;;5.75;1.48;;;22.50;90.50;;;;;;5071582;28;20033;-60
2021/01/02 08:00:22;;;;;;;3.25;1.40;;;22.50;90.50;;;;;;5070599;28;20435;-67
2021/01/02 08:02:50;;;;;;;3.90;1.60;;;22.50;90.40;;;;;;5071622;28;20111;-63
2021/01/02 08:05:21;;;;;;;1.65;0.93;;;22.50;90.50;;;;;;5071849;28;20033;-64
2021/01/02 08:08:02;;;;;;;3.15;1.13;;;22.50;90.50;;;;;;5072098;28;20056;-60
2021/01/02 08:10:31;;;;;;;5.70;1.75;;;22.50;90.40;;;;;;5071749;28;20024;-68
2021/01/02 08:13:02;;;;;;;6.22;1.17;;;22.50;90.30;;;;;;5071738;28;20165;-63
2021/01/02 08:15:31;;;;;;;2.35;1.00;;;22.50;90.30;;;;;;5071402;28;20020;-62
2021/01/02 08:18:06;;;;;;;2.97;1.40;;;22.50;90.30;;;;;;5071908;28;20033;-60
2021/01/02 08:20:34;;;;;;;4.30;1.45;;;22.50;90.50;;;;;;5071764;28;20102;-62
2021/01/02 08:23:08;;;;;;;3.95;1.38;;;22.50;90.30;;;;;;5061436;28;20028;-59
2021/01/02 08:25:36;;;;;;;5.90;1.65;;;22.40;90.50;;;;;;5066706;28;20036;-60
2021/01/02 08:28:04;;;;;;;4.40;1.33;;;22.40;90.80;;;;;;5070309;28;20052;-52
2021/01/02 08:30:31;;;;;;;4.45;1.48;;;22.40;90.80;;;;;;5068067;28;20160;-57
2021/01/02 08:33:00;;;;;;;5.32;1.67;;;22.50;90.60;;;;;;5070438;28;20028;-53
2021/01/02 08:35:39;;;;;;;2.55;1.15;;;22.50;90.50;;;;;;5069102;28;20539;-54
2021/01/02 08:38:09;;;;;;;4.43;1.23;;;22.50;90.40;;;;;;5070389;28;20021;-61
2021/01/02 08:40:44;;;;;;;2.78;1.27;;;22.50;90.30;;;;;;5067203;28;20027;-55
2021/01/02 08:43:23;;;;;;;3.30;1.27;;;22.50;90.20;;;;;;5072236;28;20064;-51
2021/01/02 08:45:59;;;;;;;2.42;1.02;;;22.50;90.20;;;;;;5072315;28;20094;-55
2021/01/02 08:48:27;;;;;;;3.15;1.30;;;22.50;90.20;;;;;;5074059;28;20537;-55
2021/01/02 08:50:55;;;;;;;2.58;1.17;;;22.50;90.10;;;;;;5068815;28;20478;-59
2021/01/02 08:53:33;;;;;;;3.33;1.20;;;22.50;90.10;;;;;;5071842;28;20025;-54
2021/01/02 08:56:21;;;;;;;3.70;1.63;;;22.50;90.10;;;;;;5072272;28;20032;-50
2021/01/02 08:58:49;;;;;;;3.20;1.17;;;22.50;90.00;;;;;;5070802;28;20028;-54
2021/01/02 09:01:16;;;;;;;2.35;1.15;;;22.50;90.00;;;;;;5068953;28;20024;-51
2021/01/02 09:03:44;;;;;;;3.88;0.95;;;22.50;90.10;;;;;;5073012;28;20028;-56
2021/01/02 09:06:25;;;;;;;2.55;0.98;;;22.50;90.00;;;;;;5072004;28;20098;-52
2021/01/02 09:09:06;;;;;;;3.50;1.33;;;22.50;90.10;;;;;;5074065;28;20028;-56
2021/01/02 09:11:50;;;;;;;2.45;1.10;;;22.50;90.00;;;;;;5069202;28;20020;-54
2021/01/02 09:14:19;;;;;;;3.60;1.15;;;22.50;89.90;;;;;;5071034;28;20028;-51
2021/01/02 09:17:07;;;;;;;2.30;1.02;;;22.50;89.90;;;;;;5073465;28;20320;-61
2021/01/02 09:19:34;;;;;;;3.30;1.35;;;22.50;89.80;;;;;;5072440;28;20053;-51
2021/01/02 09:22:02;;;;;;;2.72;1.10;;;22.50;89.90;;;;;;5069980;28;20060;-55
2021/01/02 09:24:29;;;;;;;4.07;1.08;;;22.50;89.70;;;;;;5072696;28;20121;-54
2021/01/02 09:26:57;;;;;;;1.35;0.85;;;22.50;89.70;;;;;;5073102;28;20021;-61
2021/01/02 09:29:24;;;;;;;1.80;0.98;;;22.50;89.60;;;;;;5073465;28;20051;-51
2021/01/02 09:31:52;;;;;;;2.60;1.20;;;22.50;89.70;;;;;;5069189;28;20024;-60
2021/01/02 09:34:19;;;;;;;3.92;1.20;;;22.50;89.60;;;;;;5071697;28;20032;-60
2021/01/02 09:36:51;;;;;;;2.17;1.20;;;22.50;89.60;;;;;;5072914;28;20029;-59
2021/01/02 09:39:24;;;;;;;;;;;22.50;89.50;;;;;;5073597;28;20032;-53
2021/01/02 09:41:50;;;;;;;;;;;22.50;89.40;;;;;;5068662;28;19920;-54
2021/01/02 09:44:18;;;;;;;3.85;1.25;;;22.50;89.50;;;;;;5072369;28;19913;-63
2021/01/02 09:46:49;;;;;;;3.45;1.20;;;22.50;89.40;;;;;;5072985;28;20024;-56
2021/01/02 09:49:16;;;;;;;1.97;1.20;;;22.50;89.30;;;;;;5069401;28;20033;-65
2021/01/02 09:51:44;;;;;;;1.52;0.88;;;22.50;89.40;;;;;;5068293;28;20029;-55
2021/01/02 09:54:11;;;;;;;3.03;1.10;;;22.50;89.30;;;;;;5071936;28;20387;-60
2021/01/02 09:56:48;;;;;;;3.70;1.05;;;22.50;89.20;;;;;;5073021;28;20110;-55
2021/01/02 09:59:15;;;;;;;1.85;0.80;;;22.50;89.40;;;;;;5072052;28;20032;-52
2021/01/02 10:01:43;;;;;;;3.40;1.42;;;22.40;89.20;;;;;;5068654;28;20305;-51
2021/01/02 10:04:11;;;;;;;1.92;1.02;;;22.40;89.20;;;;;;5071222;28;20522;-51
2021/01/02 10:06:45;;;;;;;2.35;1.15;;;22.50;89.10;;;;;;5072548;28;20036;-57
2021/01/02 10:09:12;;;;;;;3.35;1.23;;;22.40;89.10;;;;;;5072883;28;20078;-56
2021/01/02 10:11:44;;;;;;;2.85;1.33;;;22.40;89.10;;;;;;5068627;28;20428;-57
2021/01/02 10:14:12;;;;;;;2.42;1.15;;;22.40;89.00;;;;;;5037650;28;20051;-57
2021/01/02 10:16:39;;;;;;;2.78;1.00;;;22.40;88.90;;;;;;5072265;28;20119;-51
2021/01/02 10:19:08;;;;;;;3.08;1.40;;;22.50;88.90;;;;;;5072297;28;20074;-57
2021/01/02 10:21:35;;;;;;;1.13;0.70;;;22.50;88.80;;;;;;5067967;28;20116;-54
2021/01/02 10:24:06;;;;;;;2.85;1.30;;;22.40;88.70;;;;;;5071796;28;20510;-57
2021/01/02 10:26:34;;;;;;;1.45;0.75;;;22.40;88.60;;;;;;5071477;28;20017;-54
2021/01/02 10:29:04;;;;;;;1.75;0.85;;;22.40;88.60;;;;;;5067959;28;20056;-53
2021/01/02 10:31:32;;;;;;;1.90;1.08;;;22.40;88.70;;;;;;5053569;28;20086;-55
2021/01/02 10:33:59;;;;;;;2.28;1.23;;;22.40;88.70;;;;;;5053356;28;20455;-55
2021/01/02 10:36:26;;;;;;;1.88;0.80;;;22.40;88.70;;;;;;5069626;28;20070;-60
2021/01/02 10:38:54;;;;;;;1.23;0.90;;;22.40;88.80;;;;;;5072375;28;20047;-51
2021/01/02 10:41:24;;;;;;;1.65;0.80;;;22.40;88.80;;;;;;5068393;28;20025;-56
2021/01/02 10:43:52;;;;;;;1.25;0.70;;;22.30;88.70;;;;;;5062719;28;20029;-54
2021/01/02 10:46:19;;;;;;;3.33;0.90;;;22.40;88.80;;;;;;5072057;28;20039;-56
2021/01/02 10:48:48;;;;;;;2.33;0.88;;;22.40;88.80;;;;;;5072131;28;20409;-55
2021/01/02 10:51:17;;;;;;;2.25;1.15;;;22.30;88.80;;;;;;5071603;28;20796;-56
2021/01/02 10:53:44;;;;;;;2.55;1.15;;;22.30;88.80;;;;;;5066249;28;20430;-60
2021/01/02 10:56:14;;;;;;;2.58;0.98;;;22.30;88.80;;;;;;5071962;28;20016;-53
2021/01/02 10:58:41;;;;;;;2.35;1.05;;;22.30;88.80;;;;;;5071911;28;20048;-57
2021/01/02 11:01:09;;;;;;;2.25;0.98;;;22.30;88.90;;;;;;5071466;28;20078;-61
2021/01/02 11:03:37;;;;;;;1.63;0.85;;;22.30;88.80;;;;;;5065084;28;20025;-52
2021/01/02 11:06:07;;;;;;;2.67;0.98;;;22.30;88.80;;;;;;5071582;28;20060;-50
2021/01/02 11:08:36;;;;;;;3.42;1.00;;;22.30;88.70;;;;;;5071823;28;20095;-59
2021/01/02 11:11:05;;;;;;;4.40;1.25;;;22.30;88.80;;;;;;5067762;28;20025;-55
2021/01/02 11:13:33;;;;;;;1.60;0.75;;;22.30;88.80;;;;;;5067398;28;20020;-52
2021/01/02 11:16:00;;;;;;;1.98;0.90;;;22.30;88.80;;;;;;5070787;28;20024;-48
2021/01/02 11:18:29;;;;;;;2.38;0.90;;;22.30;88.70;;;;;;5071663;28;20035;-52
2021/01/02 11:20:57;;;;;;;1.92;0.93;;;22.30;88.70;;;;;;5071210;28;20106;-56
2021/01/02 11:23:24;;;;;;;2.30;0.98;;;22.30;88.60;;;;;;5065460;28;20375;-53
2021/01/02 11:25:51;;;;;;;2.85;0.93;;;22.30;88.50;;;;;;5069044;28;20079;-55
2021/01/02 11:28:19;;;;;;;1.98;0.77;;;22.30;88.50;;;;;;5071254;28;20024;-54
2021/01/02 11:30:46;;;;;;;2.03;0.98;;;22.30;88.50;;;;;;5071288;28;20042;-62
2021/01/02 11:33:13;;;;;;;3.50;1.08;;;22.30;88.50;;;;;;5066282;28;20150;-63
2021/01/02 11:35:41;;;;;;;1.63;0.65;;;22.30;88.40;;;;;;5070475;28;20490;-60
2021/01/02 11:38:08;;;;;;;3.30;1.05;;;22.30;88.30;;;;;;5071179;28;20621;-57
2021/01/02 11:40:35;;;;;;;2.40;0.98;;;22.30;88.20;;;;;;5071075;28;20020;-60
2021/01/02 11:43:03;;;;;;;2.03;0.90;;;22.30;88.10;;;;;;5066578;28;20055;-54
2021/01/02 11:45:30;;;;;;;2.80;1.30;;;22.30;88.00;;;;;;5069242;28;20055;-56
2021/01/02 11:47:57;;;;;;;2.92;1.08;;;22.40;88.00;;;;;;5071385;28;20017;-58
2021/01/02 11:50:25;;;;;;;4.07;1.00;;;22.30;88.00;;;;;;5071066;28;20530;-57
2021/01/02 11:52:52;;;;;;;2.55;1.30;;;22.40;88.00;;;;;;5068091;28;20033;-58
2021/01/02 11:55:19;;;;;;;2.90;1.20;;;22.30;88.00;;;;;;5068069;28;20020;-55
2021/01/02 11:57:47;;;;;;;2.88;1.00;;;22.30;87.90;;;;;;5070915;28;20033;-62
2021/01/02 12:00:15;;;;;;;3.38;1.10;;;22.30;88.00;;;;;;5070947;28;20538;-54
2021/01/02 12:02:42;;;;;;;2.42;0.88;;;22.30;88.00;;;;;;5071100;28;20368;-54
2021/01/02 12:05:10;;;;;;;4.30;0.80;;;22.30;87.90;;;;;;5064752;28;20032;-54
2021/01/02 12:07:38;;;;;;;1.88;0.93;;;22.30;87.90;;;;;;5070741;28;20025;-54
2021/01/02 12:10:06;;;;;;;1.77;0.60;;;22.30;87.90;;;;;;5070908;28;20032;-55
2021/01/02 12:12:33;;;;;;;2.33;1.00;;;22.30;87.80;;;;;;5070971;28;20422;-56
2021/01/02 12:15:01;;;;;;;3.13;1.02;;;22.30;87.90;;;;;;5065327;28;20020;-56
2021/01/02 12:17:29;;;;;;;3.70;1.23;;;22.30;87.90;;;;;;5074674;28;20025;-57
2021/01/02 12:19:59;;;;;;;1.77;1.00;;;22.30;88.00;;;;;;5073435;28;20380;-55
2021/01/02 12:22:29;;;;;;;4.38;1.10;;;22.30;88.00;;;;;;5071606;28;20052;-50
2021/01/02 12:24:57;;;;;;;4.40;1.13;;;22.30;88.30;;;;;;5068569;28;20032;-60
2021/01/02 12:27:24;;;;;;;2.28;0.90;;;22.30;88.10;;;;;;5074754;28;20051;-56
2021/01/02 12:29:51;;;;;;;3.17;0.63;;;22.30;88.10;;;;;;5075398;28;20077;-57
2021/01/02 12:32:20;;;;;;;3.40;0.88;;;22.30;88.10;;;;;;5068538;28;20244;-60
2021/01/02 12:34:47;;;;;;;6.13;1.40;;;22.30;88.00;;;;;;5070685;28;20020;-52
2021/01/02 12:37:17;;;;;;;8.48;1.02;;;22.30;88.60;;;;;;5072070;28;20025;-63
2021/01/02 12:39:46;;;;;;;3.90;0.75;;;22.30;88.00;;;;;;5074431;28;20494;-59
2021/01/02 12:42:14;;;;;;;4.68;0.80;;;22.30;88.00;;;;;;5074496;28;20032;-64
2021/01/02 12:44:44;;;;;;;2.90;1.02;;;22.30;88.10;;;;;;5072374;28;20035;-64
2021/01/02 12:47:14;;;;;;;4.22;0.82;;;22.20;88.10;;;;;;5070047;28;21464;-63
2021/01/02 12:49:46;;;;;;;3.30;1.13;;;22.20;88.10;;;;;;5074055;28;20123;-64
2021/01/02 12:52:16;;;;;;;4.88;0.80;;;22.20;88.10;;;;;;5074543;28;20029;-63
2021/01/02 12:54:44;;;;;;;4.68;0.80;;;22.20;88.20;;;;;;5073754;28;20029;-64
2021/01/02 12:57:11;;;;;;;4.10;0.93;;;22.20;88.30;;;;;;5068765;28;20021;-63
2021/01/02 12:59:39;;;;;;;2.28;0.88;;;22.20;88.30;;;;;;5072357;28;20024;-61
2021/01/02 13:02:08;;;;;;;2.78;0.90;;;22.10;88.30;;;;;;5074155;28;20036;-64
2021/01/02 13:04:36;;;;;;;5.32;0.93;;;22.10;88.40;;;;;;5073646;28;20028;-62
2021/01/02 13:07:08;;;;;;;3.83;1.30;;;22.10;88.40;;;;;;5070196;28;20119;-61
2021/01/02 13:09:36;;;;;;;2.30;1.00;;;22.10;88.50;;;;;;5073857;28;20029;-63
2021/01/02 13:12:04;;;;;;;1.40;0.60;;;22.10;88.40;;;;;;5073936;28;20107;-64
2021/01/02 13:14:32;;;;;;;2.20;0.80;;;22.00;88.40;;;;;;5073477;28;20029;-62